createdAt,value
2018-06-03T00:00:06.325Z,19.30
2018-06-03T00:02:33.966Z,19.20
2018-06-03T00:05:00.327Z,18.90
2018-06-03T00:07:26.599Z,18.60
2018-06-03T00:09:52.881Z,18.60
2018-06-03T00:12:19.182Z,18.80
2018-06-03T00:14:45.468Z,18.80
2018-06-03T00:17:11.697Z,18.80
2018-06-03T00:19:37.982Z,18.80
2018-06-03T00:22:04.445Z,18.60
2018-06-03T00:24:30.741Z,18.60
2018-06-03T00:26:57.063Z,18.60
2018-06-03T00:29:23.388Z,18.60
2018-06-03T00:31:49.700Z,18.60
2018-06-03T00:34:16.034Z,18.60
2018-06-03T00:36:43.318Z,18.50
2018-06-03T00:39:09.752Z,18.60
2018-06-03T00:41:36.077Z,18.70
2018-06-03T00:44:02.438Z,18.90
2018-06-03T00:46:28.754Z,19.00
2018-06-03T00:48:55.065Z,18.90
2018-06-03T00:51:21.430Z,18.90
2018-06-03T00:53:47.747Z,18.80
2018-06-03T00:56:26.509Z,19.10
2018-06-03T00:58:52.789Z,19.10
2018-06-03T01:01:20.617Z,18.90
2018-06-03T01:03:46.923Z,18.90
2018-06-03T01:06:13.282Z,19.20
2018-06-03T01:08:40.702Z,19.10
2018-06-03T01:11:07.927Z,19.20
2018-06-03T01:13:34.246Z,19.10
2018-06-03T01:16:08.286Z,18.90
2018-06-03T01:18:35.402Z,19.00
2018-06-03T01:21:01.753Z,18.90
2018-06-03T01:23:28.062Z,18.80
2018-06-03T01:25:54.397Z,18.90
2018-06-03T01:28:20.718Z,19.00
2018-06-03T01:30:47.062Z,18.80
2018-06-03T01:33:13.379Z,19.00
2018-06-03T01:35:39.722Z,19.00
2018-06-03T01:38:07.578Z,18.70
2018-06-03T01:40:33.922Z,18.70
2018-06-03T01:43:00.231Z,18.80
2018-06-03T01:45:26.616Z,18.90
2018-06-03T01:47:53.670Z,18.80
2018-06-03T01:50:20.001Z,18.80
2018-06-03T01:52:46.319Z,18.90
2018-06-03T01:55:13.394Z,19.00
2018-06-03T01:57:39.700Z,18.90
2018-06-03T02:00:06.185Z,18.90
2018-06-03T02:02:33.315Z,18.90
2018-06-03T02:04:59.646Z,18.90
2018-06-03T02:07:26.502Z,18.90
2018-06-03T02:09:52.815Z,18.80
2018-06-03T02:12:19.157Z,18.90
2018-06-03T02:14:45.479Z,18.80
2018-06-03T02:17:11.827Z,18.70
2018-06-03T02:19:38.142Z,18.70
2018-06-03T02:22:04.501Z,18.80
2018-06-03T02:24:32.209Z,18.60
2018-06-03T02:26:58.555Z,18.60
2018-06-03T02:29:24.920Z,18.50
2018-06-03T02:31:51.270Z,18.50
2018-06-03T02:34:18.335Z,18.60
2018-06-03T02:36:44.718Z,18.50
2018-06-03T02:39:11.088Z,18.50
2018-06-03T02:41:38.179Z,18.60
2018-06-03T02:44:04.503Z,18.50
2018-06-03T02:46:30.858Z,18.50
2018-06-03T02:48:57.179Z,18.40
2018-06-03T02:51:23.567Z,18.40
2018-06-03T02:53:50.622Z,18.40
2018-06-03T02:56:16.968Z,18.40
2018-06-03T02:58:43.325Z,18.60
2018-06-03T03:01:09.676Z,18.70
2018-06-03T03:03:36.087Z,18.60
2018-06-03T03:06:02.444Z,18.50
2018-06-03T03:08:28.951Z,18.40
2018-06-03T03:10:55.292Z,18.50
2018-06-03T03:13:22.376Z,18.40
2018-06-03T03:15:48.704Z,18.40
2018-06-03T03:18:15.077Z,18.70
2018-06-03T03:20:41.406Z,18.70
2018-06-03T03:23:07.770Z,18.70
2018-06-03T03:25:34.846Z,18.30
2018-06-03T03:28:01.197Z,18.30
2018-06-03T03:30:27.511Z,18.30
2018-06-03T03:32:53.848Z,18.10
2018-06-03T03:35:23.792Z,18.10
2018-06-03T03:37:51.129Z,18.20
2018-06-03T03:40:17.437Z,18.20
2018-06-03T03:42:43.835Z,18.20
2018-06-03T03:45:10.156Z,18.20
2018-06-03T03:47:36.502Z,18.00
2018-06-03T03:50:02.844Z,18.20
2018-06-03T03:52:29.955Z,18.10
2018-06-03T03:54:56.261Z,18.00
2018-06-03T03:57:22.616Z,18.30
2018-06-03T03:59:48.947Z,18.30
2018-06-03T04:02:15.333Z,18.20
2018-06-03T04:04:41.643Z,18.30
2018-06-03T04:07:08.725Z,18.30
2018-06-03T04:09:35.572Z,18.30
2018-06-03T04:12:01.924Z,18.30
2018-06-03T04:14:28.263Z,18.40
2018-06-03T04:16:56.098Z,18.50
2018-06-03T04:20:01.413Z,18.50
2018-06-03T04:22:29.014Z,18.40
2018-06-03T04:24:56.590Z,18.10
2018-06-03T04:27:24.176Z,18.00
2018-06-03T04:29:51.764Z,18.00
2018-06-03T04:32:19.360Z,18.00
2018-06-03T04:34:46.919Z,18.10
2018-06-03T04:37:14.509Z,18.20
2018-06-03T04:39:42.049Z,18.30
2018-06-03T04:42:09.869Z,18.30
2018-06-03T04:44:37.429Z,18.20
2018-06-03T04:47:05.418Z,18.10
2018-06-03T04:49:32.962Z,18.00
2018-06-03T04:52:00.558Z,18.10
2018-06-03T04:54:28.086Z,18.10
2018-06-03T04:56:55.647Z,18.20
2018-06-03T04:59:23.225Z,18.30
2018-06-03T05:01:50.779Z,18.40
2018-06-03T05:04:18.361Z,18.40
2018-06-03T05:06:46.104Z,18.40
2018-06-03T05:09:13.697Z,18.60
2018-06-03T05:14:08.762Z,18.90
2018-06-03T05:16:36.340Z,18.60
2018-06-03T05:19:03.942Z,18.80
2018-06-03T05:21:31.521Z,18.80
2018-06-03T05:23:59.093Z,18.80
2018-06-03T05:26:26.627Z,18.70
2018-06-03T05:28:54.222Z,18.70
2018-06-03T05:31:21.895Z,18.60
2018-06-03T05:33:49.476Z,18.60
2018-06-03T05:36:17.310Z,18.80
2018-06-03T05:38:44.941Z,18.80
2018-06-03T05:41:12.498Z,18.80
2018-06-03T05:43:40.082Z,18.80
2018-06-03T05:46:08.347Z,18.90
2018-06-03T05:48:35.915Z,18.80
2018-06-03T05:51:03.595Z,19.10
2018-06-03T05:53:31.160Z,19.10
2018-06-03T05:55:58.744Z,18.90
2018-06-03T05:58:26.313Z,18.80
2018-06-03T06:03:21.423Z,19.00
2018-06-03T06:08:16.519Z,19.00
2018-06-03T06:10:44.167Z,19.10
2018-06-03T06:13:11.762Z,19.00
2018-06-03T06:18:07.702Z,18.90
2018-06-03T06:20:35.271Z,18.90
2018-06-03T06:23:02.935Z,19.00
2018-06-03T06:25:30.477Z,19.10
2018-06-03T06:27:58.082Z,19.20
2018-06-03T06:30:25.621Z,19.10
2018-06-03T06:32:53.193Z,19.20
2018-06-03T06:35:20.779Z,19.20
2018-06-03T06:37:48.367Z,19.30
2018-06-03T06:40:15.937Z,19.20
2018-06-03T06:42:43.555Z,19.00
2018-06-03T06:45:11.133Z,19.00
2018-06-03T06:47:38.676Z,19.20
2018-06-03T06:50:06.365Z,19.30
2018-06-03T06:52:33.910Z,19.30
2018-06-03T06:55:02.433Z,19.70
2018-06-03T06:57:29.973Z,19.70
2018-06-03T07:02:25.118Z,19.80
2018-06-03T07:04:52.735Z,19.60
2018-06-03T07:09:47.914Z,19.30
2018-06-03T07:12:15.505Z,19.50
2018-06-03T07:14:43.098Z,19.50
2018-06-03T07:19:38.251Z,19.30
2018-06-03T07:22:05.830Z,19.20
2018-06-03T07:24:33.411Z,19.40
2018-06-03T07:27:00.937Z,19.60
2018-06-03T07:29:28.499Z,19.70
2018-06-03T07:31:56.080Z,20.20
2018-06-03T07:34:23.735Z,20.20
2018-06-03T07:36:51.334Z,20.20
2018-06-03T07:39:18.921Z,20.00
2018-06-03T07:41:46.523Z,20.00
2018-06-03T07:44:14.121Z,20.20
2018-06-03T07:46:41.697Z,20.40
2018-06-03T07:49:09.338Z,20.30
2018-06-03T07:51:36.973Z,20.30
2018-06-03T07:54:04.842Z,20.10
2018-06-03T08:01:28.222Z,20.10
2018-06-03T08:03:55.834Z,20.10
2018-06-03T08:06:23.451Z,20.20
2018-06-03T08:08:52.199Z,20.20
2018-06-03T08:11:19.942Z,20.40
2018-06-03T08:13:47.669Z,20.50
2018-06-03T08:16:15.403Z,20.70
2018-06-03T08:18:43.066Z,20.60
2018-06-03T08:21:10.597Z,20.30
2018-06-03T08:23:38.230Z,20.70
2018-06-03T08:26:05.754Z,20.90
2018-06-03T08:31:01.157Z,20.80
2018-06-03T08:33:28.774Z,20.60
2018-06-03T08:35:56.371Z,20.70
2018-06-03T08:38:23.963Z,20.50
2018-06-03T08:40:51.542Z,20.40
2018-06-03T08:43:19.140Z,20.40
2018-06-03T08:45:46.758Z,20.50
2018-06-03T08:50:41.859Z,20.60
2018-06-03T08:53:09.475Z,20.60
2018-06-03T08:55:38.009Z,20.80
2018-06-03T09:00:33.636Z,21.00
2018-06-03T09:03:01.263Z,21.10
2018-06-03T09:05:28.790Z,21.20
2018-06-03T09:07:56.321Z,21.20
2018-06-03T09:12:51.493Z,21.30
2018-06-03T09:15:19.095Z,21.10
2018-06-03T09:17:46.706Z,21.10
2018-06-03T09:20:14.310Z,21.20
2018-06-03T09:25:09.624Z,21.30
2018-06-03T09:27:37.261Z,21.40
2018-06-03T09:30:04.842Z,21.40
2018-06-03T09:32:32.453Z,21.70
2018-06-03T09:35:00.060Z,21.50
2018-06-03T09:37:27.598Z,21.40
2018-06-03T09:39:55.193Z,21.30
2018-06-03T09:44:50.295Z,21.30
2018-06-03T09:49:45.434Z,21.70
2018-06-03T09:52:13.270Z,21.50
2018-06-03T09:54:40.913Z,21.30
2018-06-03T09:57:08.490Z,21.40
2018-06-03T09:59:36.242Z,21.40
2018-06-03T10:02:05.342Z,21.30
2018-06-03T10:04:34.316Z,21.30
2018-06-03T10:07:03.300Z,21.20
2018-06-03T10:09:33.627Z,21.20
2018-06-03T10:12:02.591Z,21.10
2018-06-03T10:14:31.433Z,20.90
2018-06-03T10:17:00.618Z,21.00
2018-06-03T10:19:29.010Z,21.00
2018-06-03T10:21:56.845Z,21.20
2018-06-03T10:24:24.573Z,21.20
2018-06-03T10:26:52.349Z,21.30
2018-06-03T10:29:20.544Z,21.20
2018-06-03T10:31:48.244Z,21.00
2018-06-03T10:34:15.874Z,20.90
2018-06-03T10:36:43.506Z,20.80
2018-06-03T10:39:11.158Z,21.00
2018-06-03T10:41:38.826Z,21.00
2018-06-03T10:44:06.428Z,20.90
2018-06-03T10:46:34.021Z,21.10
2018-06-03T10:51:29.163Z,21.50
2018-06-03T10:53:56.920Z,21.60
2018-06-03T10:56:24.494Z,21.20
2018-06-03T10:58:52.047Z,21.30
2018-06-03T11:01:19.661Z,21.30
2018-06-03T11:08:42.707Z,21.50
2018-06-03T11:11:10.318Z,21.50
2018-06-03T11:16:05.502Z,21.20
2018-06-03T11:18:33.136Z,21.00
2018-06-03T11:21:00.833Z,21.10
2018-06-03T11:23:28.416Z,21.10
2018-06-03T11:25:56.009Z,21.50
2018-06-03T11:28:23.588Z,21.20
2018-06-03T11:30:51.237Z,21.40
2018-06-03T11:33:18.801Z,21.80
2018-06-03T11:35:46.396Z,21.70
2018-06-03T11:38:13.958Z,21.70
2018-06-03T11:40:41.603Z,21.80
2018-06-03T11:43:09.130Z,21.80
2018-06-03T11:45:36.743Z,21.80
2018-06-03T11:50:31.948Z,21.80
2018-06-03T11:52:59.581Z,21.90
2018-06-03T11:55:27.148Z,21.80
2018-06-03T11:58:35.855Z,21.60
2018-06-03T12:03:31.007Z,21.50
2018-06-03T12:05:59.506Z,21.50
2018-06-03T12:08:27.107Z,21.60
2018-06-03T12:10:54.667Z,21.40
2018-06-03T12:13:22.987Z,21.20
2018-06-03T12:15:51.324Z,21.30
2018-06-03T12:20:48.018Z,21.50
2018-06-03T12:23:16.391Z,21.40
2018-06-03T12:25:44.763Z,21.20
2018-06-03T12:28:13.149Z,21.20
2018-06-03T12:30:41.702Z,21.20
2018-06-03T12:33:09.905Z,21.10
2018-06-03T12:38:06.269Z,21.80
2018-06-03T12:40:34.725Z,22.00
2018-06-03T12:45:31.125Z,22.30
2018-06-03T12:47:59.420Z,22.40
2018-06-03T12:50:27.627Z,22.50
2018-06-03T12:52:55.992Z,22.20
2018-06-03T12:55:23.728Z,22.10
2018-06-03T12:57:52.393Z,22.40
2018-06-03T13:00:21.731Z,22.40
2018-06-03T13:02:50.921Z,22.30
2018-06-03T13:05:18.498Z,22.30
2018-06-03T13:07:46.121Z,22.10
2018-06-03T13:10:13.679Z,22.40
2018-06-03T13:12:41.274Z,22.30
2018-06-03T13:15:08.892Z,22.30
2018-06-03T13:17:36.479Z,22.10
2018-06-03T13:20:04.462Z,22.10
2018-06-03T13:22:32.057Z,22.10
2018-06-03T13:27:27.806Z,22.40
2018-06-03T13:29:55.416Z,22.10
2018-06-03T13:32:22.973Z,22.30
2018-06-03T13:34:50.554Z,22.10
2018-06-03T13:37:18.351Z,22.10
2018-06-03T13:39:45.893Z,22.00
2018-06-03T13:42:13.449Z,21.80
2018-06-03T13:44:41.101Z,21.80
2018-06-03T13:47:08.749Z,21.80
2018-06-03T13:49:36.332Z,21.70
2018-06-03T13:54:32.426Z,21.90
2018-06-03T13:56:59.960Z,22.10
2018-06-03T13:59:27.603Z,22.10
2018-06-03T14:04:22.798Z,22.20
2018-06-03T14:06:50.345Z,22.00
2018-06-03T14:09:18.765Z,22.10
2018-06-03T14:16:41.465Z,22.20
2018-06-03T14:19:09.102Z,22.40
2018-06-03T14:21:36.655Z,22.50
2018-06-03T14:24:05.556Z,22.20
2018-06-03T14:26:33.151Z,22.10
2018-06-03T14:29:00.703Z,22.20
2018-06-03T14:33:56.051Z,22.10
2018-06-03T14:36:24.430Z,22.20
2018-06-03T14:38:52.019Z,22.00
2018-06-03T14:41:19.541Z,22.20
2018-06-03T14:43:48.228Z,22.40
2018-06-03T14:46:16.142Z,22.80
2018-06-03T14:48:43.666Z,22.70
2018-06-03T14:51:11.284Z,22.90
2018-06-03T14:53:38.878Z,22.60
2018-06-03T14:56:06.475Z,22.50
2018-06-03T14:58:33.949Z,22.70
2018-06-03T15:01:02.439Z,22.90
2018-06-03T15:03:30.122Z,22.70
2018-06-03T15:08:25.407Z,22.20
2018-06-03T15:10:53.053Z,22.00
2018-06-03T15:13:20.570Z,22.10
2018-06-03T15:15:48.150Z,22.10
2018-06-03T15:18:15.699Z,22.00
2018-06-03T15:20:43.328Z,22.00
2018-06-03T15:23:10.902Z,21.80
2018-06-03T15:25:38.486Z,21.80
2018-06-03T15:28:06.118Z,21.70
2018-06-03T15:30:33.694Z,21.70
2018-06-03T15:33:01.275Z,21.90
2018-06-03T15:37:56.466Z,22.10
2018-06-03T15:40:24.004Z,22.40
2018-06-03T15:42:51.622Z,22.70
2018-06-03T15:45:19.216Z,23.30
2018-06-03T15:50:14.326Z,24.40
2018-06-03T15:55:09.470Z,24.90
2018-06-03T16:00:05.831Z,25.10
2018-06-03T16:02:33.373Z,25.30
2018-06-03T16:05:01.022Z,25.00
2018-06-03T16:07:28.531Z,25.20
2018-06-03T16:09:56.146Z,24.90
2018-06-03T16:12:23.751Z,24.80
2018-06-03T16:14:51.263Z,25.20
2018-06-03T16:17:19.391Z,26.30
2018-06-03T16:19:46.933Z,25.80
2018-06-03T16:22:14.580Z,26.10
2018-06-03T16:24:42.121Z,26.80
2018-06-03T16:27:09.720Z,26.80
2018-06-03T16:29:37.273Z,27.00
2018-06-03T16:32:04.986Z,26.60
2018-06-03T16:34:33.376Z,25.60
2018-06-03T16:37:00.974Z,25.60
2018-06-03T16:39:28.546Z,25.70
2018-06-03T16:44:23.735Z,26.20
2018-06-03T16:46:51.395Z,26.50
2018-06-03T16:49:18.958Z,27.30
2018-06-03T16:51:46.614Z,27.00
2018-06-03T16:54:14.232Z,27.20
2018-06-03T16:56:41.749Z,27.50
2018-06-03T16:59:09.364Z,27.40
2018-06-03T17:01:36.953Z,27.60
2018-06-03T17:04:04.767Z,28.10
2018-06-03T17:06:32.346Z,27.60
2018-06-03T17:11:28.986Z,26.80
2018-06-03T17:13:56.499Z,27.20
2018-06-03T17:16:24.063Z,27.20
2018-06-03T17:18:51.704Z,26.40
2018-06-03T17:21:19.291Z,26.40
2018-06-03T17:26:14.333Z,25.80
2018-06-03T17:28:41.933Z,25.70
2018-06-03T17:31:09.465Z,26.20
2018-06-03T17:36:04.800Z,25.80
2018-06-03T17:38:32.293Z,25.70
2018-06-03T17:41:00.388Z,25.60
2018-06-03T17:43:28.004Z,25.60
2018-06-03T17:45:56.145Z,25.60
2018-06-03T17:48:23.758Z,25.90
2018-06-03T17:50:51.345Z,25.30
2018-06-03T17:53:19.387Z,25.50
2018-06-03T17:55:46.969Z,25.20
2018-06-03T17:58:14.518Z,25.60
2018-06-03T18:00:42.122Z,25.90
2018-06-03T18:03:10.417Z,26.40
2018-06-03T18:05:38.000Z,26.60
2018-06-03T18:08:05.574Z,26.40
2018-06-03T18:10:33.123Z,26.80
2018-06-03T18:13:00.639Z,26.60
2018-06-03T18:15:28.210Z,26.80
2018-06-03T18:17:55.750Z,27.00
2018-06-03T18:22:50.819Z,26.70
2018-06-03T18:25:18.361Z,26.30
2018-06-03T18:27:45.859Z,26.10
2018-06-03T18:30:13.419Z,26.00
2018-06-03T18:32:40.934Z,26.20
2018-06-03T18:35:08.494Z,25.90
2018-06-03T18:37:36.039Z,25.80
2018-06-03T18:40:03.613Z,25.60
2018-06-03T18:42:31.976Z,25.40
2018-06-03T18:44:59.894Z,25.40
2018-06-03T18:47:27.468Z,25.30
2018-06-03T18:49:55.013Z,25.20
2018-06-03T18:52:22.522Z,25.20
2018-06-03T18:54:50.142Z,25.20
2018-06-03T18:59:45.292Z,24.90
2018-06-03T19:02:12.798Z,24.90
2018-06-03T19:04:40.372Z,24.80
2018-06-03T19:09:35.534Z,24.50
2018-06-03T19:12:03.809Z,24.30
2018-06-03T19:14:31.392Z,24.10
2018-06-03T19:16:58.963Z,24.10
2018-06-03T19:19:26.671Z,23.80
2018-06-03T19:21:54.270Z,23.80
2018-06-03T19:24:21.914Z,23.80
2018-06-03T19:26:50.066Z,23.60
2018-06-03T19:29:17.657Z,23.70
2018-06-03T19:31:45.166Z,23.60
2018-06-03T19:34:12.684Z,23.20
2018-06-03T19:36:40.246Z,22.90
2018-06-03T19:39:08.282Z,22.90
2018-06-03T19:41:36.325Z,23.00
2018-06-03T19:44:03.880Z,23.10
2018-06-03T19:46:31.396Z,22.90
2018-06-03T19:48:58.982Z,22.80
2018-06-03T19:51:26.716Z,22.80
2018-06-03T19:53:54.296Z,22.80
2018-06-03T19:56:21.819Z,22.80
2018-06-03T19:58:49.379Z,22.70
2018-06-03T20:01:17.966Z,22.60
2018-06-03T20:03:45.539Z,22.40
2018-06-03T20:06:13.122Z,22.50
2018-06-03T20:08:40.959Z,22.70
2018-06-03T20:11:08.498Z,22.50
2018-06-03T20:13:36.005Z,22.40
2018-06-03T20:20:58.687Z,22.00
2018-06-03T20:23:26.257Z,22.00
2018-06-03T20:25:54.055Z,21.90
2018-06-03T20:28:21.643Z,22.00
2018-06-03T20:30:49.377Z,21.90
2018-06-03T20:33:16.953Z,22.00
2018-06-03T20:35:44.525Z,22.00
2018-06-03T20:38:12.025Z,21.70
2018-06-03T20:40:39.588Z,21.70
2018-06-03T20:43:07.207Z,21.90
2018-06-03T20:45:34.766Z,21.90
2018-06-03T20:48:02.371Z,21.90
2018-06-03T20:50:29.920Z,21.90
2018-06-03T20:52:57.475Z,21.70
2018-06-03T20:57:52.516Z,21.80
2018-06-03T21:00:20.040Z,21.40
2018-06-03T21:02:47.599Z,21.20
2018-06-03T21:05:15.301Z,21.10
2018-06-03T21:07:42.876Z,20.90
2018-06-03T21:10:10.526Z,20.80
2018-06-03T21:12:38.090Z,20.90
2018-06-03T21:15:05.641Z,20.70
2018-06-03T21:17:33.204Z,20.70
2018-06-03T21:20:00.759Z,20.70
2018-06-03T21:22:28.335Z,20.70
2018-06-03T21:24:55.845Z,21.00
2018-06-03T21:29:50.946Z,21.10
2018-06-03T21:34:47.303Z,20.40
2018-06-03T21:37:14.804Z,20.60
2018-06-03T21:39:42.363Z,20.80
2018-06-03T21:42:09.941Z,20.70
2018-06-03T21:44:37.574Z,20.40
2018-06-03T21:47:05.115Z,20.60
2018-06-03T21:49:32.642Z,20.70
2018-06-03T21:52:00.208Z,20.80
2018-06-03T21:54:27.723Z,20.60
2018-06-03T21:56:55.230Z,20.40
2018-06-03T21:59:22.821Z,20.40
2018-06-03T22:01:50.336Z,20.30
2018-06-03T22:04:17.905Z,20.30
2018-06-03T22:06:45.502Z,20.40
2018-06-03T22:09:13.119Z,20.50
2018-06-03T22:11:40.638Z,20.30
2018-06-03T22:14:08.144Z,19.90
2018-06-03T22:16:35.699Z,19.80
2018-06-03T22:19:03.210Z,19.80
2018-06-03T22:21:30.855Z,20.00
2018-06-03T22:23:58.516Z,20.20
2018-06-03T22:26:26.054Z,20.40
2018-06-03T22:31:21.300Z,20.30
2018-06-03T22:33:48.854Z,20.00
2018-06-03T22:36:16.624Z,19.70
2018-06-03T22:38:44.175Z,19.80
2018-06-03T22:41:11.719Z,20.00
2018-06-03T22:46:06.772Z,20.00
2018-06-03T22:48:34.376Z,20.20
2018-06-03T22:53:29.407Z,19.40
2018-06-03T22:55:56.979Z,19.40
2018-06-03T22:58:24.499Z,19.40
2018-06-03T23:00:52.033Z,19.40
2018-06-03T23:03:19.622Z,19.40
2018-06-03T23:05:47.220Z,19.40
2018-06-03T23:08:14.846Z,19.30
2018-06-03T23:10:42.390Z,19.30
2018-06-03T23:13:09.989Z,19.60
2018-06-03T23:15:37.550Z,19.60
2018-06-03T23:18:06.181Z,19.80
2018-06-03T23:20:33.770Z,19.60
2018-06-03T23:23:01.354Z,19.10
2018-06-03T23:25:28.946Z,19.10
2018-06-03T23:27:56.501Z,19.20
2018-06-03T23:30:24.135Z,19.30
2018-06-03T23:32:52.516Z,19.20
2018-06-03T23:35:20.109Z,19.30
2018-06-03T23:40:15.913Z,19.40
2018-06-03T23:42:44.083Z,19.40
2018-06-03T23:45:12.057Z,19.20
2018-06-03T23:47:39.924Z,19.10
2018-06-03T23:50:08.427Z,19.20
2018-06-03T23:52:36.337Z,19.00
2018-06-03T23:55:04.187Z,19.10
2018-06-03T23:57:32.717Z,19.20
